sensor_id;sensor_type;location;lat;lon;timestamp;P1;durP1;ratioP1;P2;durP2;ratioP2
77026;SDS011;65956;52.986;17.490;2023-10-09T00:00:15;4.30;;;1.60;;
77026;SDS011;65956;52.986;17.490;2023-10-09T00:03:21;4.70;;;1.80;;
77026;SDS011;65956;52.986;17.490;2023-10-09T00:05:50;5.40;;;1.70;;
77026;SDS011;65956;52.986;17.490;2023-10-09T00:08:19;4.70;;;2.00;;
77026;SDS011;65956;52.986;17.490;2023-10-09T00:10:56;3.30;;;1.50;;
77026;SDS011;65956;52.986;17.490;2023-10-09T00:14:02;4.20;;;1.30;;
77026;SDS011;65956;52.986;17.490;2023-10-09T00:16:30;5.50;;;1.80;;
77026;SDS011;65956;52.986;17.490;2023-10-09T00:19:00;4.70;;;2.00;;
77026;SDS011;65956;52.986;17.490;2023-10-09T00:21:46;4.40;;;1.70;;
77026;SDS011;65956;52.986;17.490;2023-10-09T00:24:13;7.00;;;2.10;;
77026;SDS011;65956;52.986;17.490;2023-10-09T00:26:45;5.30;;;1.70;;
77026;SDS011;65956;52.986;17.490;2023-10-09T00:29:15;5.50;;;2.00;;
77026;SDS011;65956;52.986;17.490;2023-10-09T00:31:48;8.30;;;2.10;;
77026;SDS011;65956;52.986;17.490;2023-10-09T00:34:16;4.90;;;1.80;;
77026;SDS011;65956;52.986;17.490;2023-10-09T00:36:45;4.80;;;2.00;;
77026;SDS011;65956;52.986;17.490;2023-10-09T00:39:18;5.90;;;2.00;;
77026;SDS011;65956;52.986;17.490;2023-10-09T00:42:05;5.70;;;2.10;;
77026;SDS011;65956;52.986;17.490;2023-10-09T00:44:32;4.60;;;1.90;;
77026;SDS011;65956;52.986;17.490;2023-10-09T00:47:09;4.70;;;1.90;;
77026;SDS011;65956;52.986;17.490;2023-10-09T00:49:47;5.80;;;2.20;;
77026;SDS011;65956;52.986;17.490;2023-10-09T00:52:13;4.00;;;1.40;;
77026;SDS011;65956;52.986;17.490;2023-10-09T00:54:48;6.20;;;2.20;;
77026;SDS011;65956;52.986;17.490;2023-10-09T00:57:18;5.50;;;2.30;;
77026;SDS011;65956;52.986;17.490;2023-10-09T00:59:54;5.50;;;2.20;;
77026;SDS011;65956;52.986;17.490;2023-10-09T01:02:26;6.40;;;2.60;;
77026;SDS011;65956;52.986;17.490;2023-10-09T01:05:07;7.90;;;2.80;;
77026;SDS011;65956;52.986;17.490;2023-10-09T01:07:47;6.50;;;2.70;;
77026;SDS011;65956;52.986;17.490;2023-10-09T01:10:14;6.90;;;2.10;;
77026;SDS011;65956;52.986;17.490;2023-10-09T01:12:42;7.70;;;2.80;;
77026;SDS011;65956;52.986;17.490;2023-10-09T01:15:10;6.20;;;2.50;;
77026;SDS011;65956;52.986;17.490;2023-10-09T01:17:59;7.00;;;2.60;;
77026;SDS011;65956;52.986;17.490;2023-10-09T01:20:27;7.00;;;3.20;;
77026;SDS011;65956;52.986;17.490;2023-10-09T01:23:02;8.90;;;3.90;;
77026;SDS011;65956;52.986;17.490;2023-10-09T01:25:28;5.80;;;2.50;;
77026;SDS011;65956;52.986;17.490;2023-10-09T01:28:07;6.80;;;2.90;;
77026;SDS011;65956;52.986;17.490;2023-10-09T01:30:33;8.10;;;3.10;;
77026;SDS011;65956;52.986;17.490;2023-10-09T01:32:59;7.50;;;3.30;;
77026;SDS011;65956;52.986;17.490;2023-10-09T01:35:37;8.30;;;3.10;;
77026;SDS011;65956;52.986;17.490;2023-10-09T01:38:12;6.60;;;2.80;;
77026;SDS011;65956;52.986;17.490;2023-10-09T01:40:41;7.90;;;3.10;;
77026;SDS011;65956;52.986;17.490;2023-10-09T01:43:07;8.30;;;3.30;;
77026;SDS011;65956;52.986;17.490;2023-10-09T01:45:36;7.80;;;3.60;;
77026;SDS011;65956;52.986;17.490;2023-10-09T01:48:09;8.20;;;3.40;;
77026;SDS011;65956;52.986;17.490;2023-10-09T01:50:37;9.90;;;3.60;;
77026;SDS011;65956;52.986;17.490;2023-10-09T01:53:08;8.10;;;3.70;;
77026;SDS011;65956;52.986;17.490;2023-10-09T01:55:34;7.60;;;3.00;;
77026;SDS011;65956;52.986;17.490;2023-10-09T01:58:06;7.40;;;3.20;;
77026;SDS011;65956;52.986;17.490;2023-10-09T02:00:42;7.90;;;3.20;;
77026;SDS011;65956;52.986;17.490;2023-10-09T02:03:15;7.40;;;3.40;;
77026;SDS011;65956;52.986;17.490;2023-10-09T02:05:41;8.20;;;3.60;;
77026;SDS011;65956;52.986;17.490;2023-10-09T02:08:08;7.50;;;3.60;;
77026;SDS011;65956;52.986;17.490;2023-10-09T02:10:38;7.30;;;3.10;;
77026;SDS011;65956;52.986;17.490;2023-10-09T02:13:06;7.00;;;3.20;;
77026;SDS011;65956;52.986;17.490;2023-10-09T02:15:33;8.50;;;3.80;;
77026;SDS011;65956;52.986;17.490;2023-10-09T02:18:10;7.00;;;3.00;;
77026;SDS011;65956;52.986;17.490;2023-10-09T02:20:53;7.70;;;3.40;;
77026;SDS011;65956;52.986;17.490;2023-10-09T02:23:31;9.20;;;3.30;;
77026;SDS011;65956;52.986;17.490;2023-10-09T02:26:10;7.60;;;3.20;;
77026;SDS011;65956;52.986;17.490;2023-10-09T02:28:55;8.10;;;3.30;;
77026;SDS011;65956;52.986;17.490;2023-10-09T02:31:26;7.90;;;2.90;;
77026;SDS011;65956;52.986;17.490;2023-10-09T02:34:06;7.40;;;3.30;;
77026;SDS011;65956;52.986;17.490;2023-10-09T02:36:36;6.20;;;3.00;;
77026;SDS011;65956;52.986;17.490;2023-10-09T02:39:15;6.70;;;2.70;;
77026;SDS011;65956;52.986;17.490;2023-10-09T02:42:05;7.50;;;3.10;;
77026;SDS011;65956;52.986;17.490;2023-10-09T02:44:50;7.90;;;3.00;;
77026;SDS011;65956;52.986;17.490;2023-10-09T02:47:17;6.80;;;2.90;;
77026;SDS011;65956;52.986;17.490;2023-10-09T02:49:51;5.90;;;2.80;;
77026;SDS011;65956;52.986;17.490;2023-10-09T02:52:18;7.20;;;2.90;;
77026;SDS011;65956;52.986;17.490;2023-10-09T02:54:45;6.30;;;2.50;;
77026;SDS011;65956;52.986;17.490;2023-10-09T02:57:18;7.10;;;2.80;;
77026;SDS011;65956;52.986;17.490;2023-10-09T02:59:53;6.50;;;2.50;;
77026;SDS011;65956;52.986;17.490;2023-10-09T03:02:19;6.20;;;2.30;;
77026;SDS011;65956;52.986;17.490;2023-10-09T03:04:45;8.00;;;2.80;;
77026;SDS011;65956;52.986;17.490;2023-10-09T03:07:12;6.10;;;2.50;;
77026;SDS011;65956;52.986;17.490;2023-10-09T03:09:39;6.10;;;2.20;;
77026;SDS011;65956;52.986;17.490;2023-10-09T03:12:07;5.60;;;2.20;;
77026;SDS011;65956;52.986;17.490;2023-10-09T03:14:37;6.00;;;2.30;;
77026;SDS011;65956;52.986;17.490;2023-10-09T03:17:05;5.70;;;2.30;;
77026;SDS011;65956;52.986;17.490;2023-10-09T03:19:32;5.40;;;2.40;;
77026;SDS011;65956;52.986;17.490;2023-10-09T03:22:03;5.90;;;2.70;;
77026;SDS011;65956;52.986;17.490;2023-10-09T03:24:30;8.50;;;2.80;;
77026;SDS011;65956;52.986;17.490;2023-10-09T03:26:57;7.50;;;2.80;;
77026;SDS011;65956;52.986;17.490;2023-10-09T03:29:24;8.00;;;3.20;;
77026;SDS011;65956;52.986;17.490;2023-10-09T03:31:50;6.00;;;2.60;;
77026;SDS011;65956;52.986;17.490;2023-10-09T03:34:17;7.60;;;2.90;;
77026;SDS011;65956;52.986;17.490;2023-10-09T03:36:46;11.10;;;5.10;;
77026;SDS011;65956;52.986;17.490;2023-10-09T03:39:14;18.50;;;7.90;;
77026;SDS011;65956;52.986;17.490;2023-10-09T03:42:06;10.40;;;4.00;;
77026;SDS011;65956;52.986;17.490;2023-10-09T03:44:37;10.70;;;4.40;;
77026;SDS011;65956;52.986;17.490;2023-10-09T03:47:13;9.40;;;3.50;;
77026;SDS011;65956;52.986;17.490;2023-10-09T03:49:42;9.30;;;4.10;;
77026;SDS011;65956;52.986;17.490;2023-10-09T03:52:09;11.20;;;4.60;;
77026;SDS011;65956;52.986;17.490;2023-10-09T03:54:35;9.60;;;5.40;;
77026;SDS011;65956;52.986;17.490;2023-10-09T03:57:01;15.60;;;9.70;;
77026;SDS011;65956;52.986;17.490;2023-10-09T03:59:28;9.90;;;4.90;;
77026;SDS011;65956;52.986;17.490;2023-10-09T04:01:58;8.40;;;4.10;;
77026;SDS011;65956;52.986;17.490;2023-10-09T04:04:24;7.10;;;3.10;;
77026;SDS011;65956;52.986;17.490;2023-10-09T04:06:51;6.80;;;3.00;;
77026;SDS011;65956;52.986;17.490;2023-10-09T04:09:17;8.00;;;3.00;;
77026;SDS011;65956;52.986;17.490;2023-10-09T04:11:49;9.20;;;3.70;;
77026;SDS011;65956;52.986;17.490;2023-10-09T04:14:38;8.50;;;3.50;;
77026;SDS011;65956;52.986;17.490;2023-10-09T04:17:14;9.40;;;4.30;;
77026;SDS011;65956;52.986;17.490;2023-10-09T04:20:00;9.50;;;4.30;;
77026;SDS011;65956;52.986;17.490;2023-10-09T04:22:41;9.10;;;4.00;;
77026;SDS011;65956;52.986;17.490;2023-10-09T04:25:18;7.80;;;3.40;;
77026;SDS011;65956;52.986;17.490;2023-10-09T04:27:55;7.80;;;3.50;;
77026;SDS011;65956;52.986;17.490;2023-10-09T04:30:46;5.30;;;2.30;;
77026;SDS011;65956;52.986;17.490;2023-10-09T04:33:12;5.80;;;2.70;;
77026;SDS011;65956;52.986;17.490;2023-10-09T04:36:05;6.20;;;2.80;;
77026;SDS011;65956;52.986;17.490;2023-10-09T04:38:44;6.30;;;2.60;;
77026;SDS011;65956;52.986;17.490;2023-10-09T04:41:29;7.80;;;3.60;;
77026;SDS011;65956;52.986;17.490;2023-10-09T04:44:18;6.40;;;2.80;;
77026;SDS011;65956;52.986;17.490;2023-10-09T04:46:48;7.10;;;3.30;;
77026;SDS011;65956;52.986;17.490;2023-10-09T04:49:34;5.70;;;2.50;;
77026;SDS011;65956;52.986;17.490;2023-10-09T14:48:20;8.90;;;5.00;;
77026;SDS011;65956;52.986;17.490;2023-10-09T14:50:53;19.80;;;12.70;;
77026;SDS011;65956;52.986;17.490;2023-10-09T14:53:20;9.10;;;4.90;;
77026;SDS011;65956;52.986;17.490;2023-10-09T14:55:57;7.50;;;3.80;;
77026;SDS011;65956;52.986;17.490;2023-10-09T14:58:23;126.90;;;38.50;;
77026;SDS011;65956;52.986;17.490;2023-10-09T15:00:54;179.40;;;53.60;;
77026;SDS011;65956;52.986;17.490;2023-10-09T15:03:21;47.10;;;17.80;;
77026;SDS011;65956;52.986;17.490;2023-10-09T15:05:50;40.10;;;16.50;;
77026;SDS011;65956;52.986;17.490;2023-10-09T15:08:16;69.00;;;26.50;;
77026;SDS011;65956;52.986;17.490;2023-10-09T15:10:44;57.90;;;23.00;;
77026;SDS011;65956;52.986;17.490;2023-10-09T15:13:16;13.70;;;6.30;;
77026;SDS011;65956;52.986;17.490;2023-10-09T15:15:43;23.80;;;11.50;;
77026;SDS011;65956;52.986;17.490;2023-10-09T15:18:11;33.80;;;16.40;;
77026;SDS011;65956;52.986;17.490;2023-10-09T15:20:40;48.30;;;20.00;;
77026;SDS011;65956;52.986;17.490;2023-10-09T15:23:07;23.20;;;10.10;;
77026;SDS011;65956;52.986;17.490;2023-10-09T15:25:34;30.00;;;13.70;;
77026;SDS011;65956;52.986;17.490;2023-10-09T15:28:01;23.10;;;12.30;;
77026;SDS011;65956;52.986;17.490;2023-10-09T15:30:29;36.90;;;20.60;;
77026;SDS011;65956;52.986;17.490;2023-10-09T15:32:57;290.50;;;76.60;;
77026;SDS011;65956;52.986;17.490;2023-10-09T15:35:23;273.60;;;74.30;;
77026;SDS011;65956;52.986;17.490;2023-10-09T15:37:49;199.10;;;55.10;;
77026;SDS011;65956;52.986;17.490;2023-10-09T15:40:18;106.50;;;43.50;;
77026;SDS011;65956;52.986;17.490;2023-10-09T15:42:50;217.10;;;78.20;;
77026;SDS011;65956;52.986;17.490;2023-10-09T15:45:16;125.00;;;45.10;;
77026;SDS011;65956;52.986;17.490;2023-10-09T15:47:43;153.00;;;55.00;;
77026;SDS011;65956;52.986;17.490;2023-10-09T15:50:10;111.70;;;43.30;;
77026;SDS011;65956;52.986;17.490;2023-10-09T15:52:38;36.80;;;16.20;;
77026;SDS011;65956;52.986;17.490;2023-10-09T15:55:08;23.00;;;10.20;;
77026;SDS011;65956;52.986;17.490;2023-10-09T15:57:39;28.70;;;13.70;;
77026;SDS011;65956;52.986;17.490;2023-10-09T16:00:06;50.70;;;23.90;;
77026;SDS011;65956;52.986;17.490;2023-10-09T16:02:43;37.50;;;25.00;;
77026;SDS011;65956;52.986;17.490;2023-10-09T16:05:10;41.80;;;21.80;;
77026;SDS011;65956;52.986;17.490;2023-10-09T16:07:38;30.90;;;17.20;;
77026;SDS011;65956;52.986;17.490;2023-10-09T16:10:07;31.70;;;21.40;;
77026;SDS011;65956;52.986;17.490;2023-10-09T16:12:35;44.10;;;22.40;;
77026;SDS011;65956;52.986;17.490;2023-10-09T16:15:03;47.20;;;26.30;;
77026;SDS011;65956;52.986;17.490;2023-10-09T16:20:01;67.90;;;33.10;;
77026;SDS011;65956;52.986;17.490;2023-10-09T16:22:31;71.20;;;36.90;;
77026;SDS011;65956;52.986;17.490;2023-10-09T16:24:59;65.40;;;36.70;;
77026;SDS011;65956;52.986;17.490;2023-10-09T16:27:27;36.50;;;19.90;;
77026;SDS011;65956;52.986;17.490;2023-10-09T16:29:53;30.00;;;17.80;;
77026;SDS011;65956;52.986;17.490;2023-10-09T16:32:20;31.60;;;19.10;;
77026;SDS011;65956;52.986;17.490;2023-10-09T16:34:50;23.60;;;14.60;;
77026;SDS011;65956;52.986;17.490;2023-10-09T16:37:16;32.80;;;16.90;;
77026;SDS011;65956;52.986;17.490;2023-10-09T16:39:48;25.70;;;15.50;;
77026;SDS011;65956;52.986;17.490;2023-10-09T16:42:19;22.70;;;12.80;;
77026;SDS011;65956;52.986;17.490;2023-10-09T16:44:50;25.10;;;13.40;;
77026;SDS011;65956;52.986;17.490;2023-10-09T16:47:16;21.50;;;14.00;;
77026;SDS011;65956;52.986;17.490;2023-10-09T16:49:45;22.60;;;13.60;;
77026;SDS011;65956;52.986;17.490;2023-10-09T16:52:17;23.40;;;12.30;;
77026;SDS011;65956;52.986;17.490;2023-10-09T16:54:43;17.70;;;11.20;;
77026;SDS011;65956;52.986;17.490;2023-10-09T16:57:10;12.50;;;8.30;;
77026;SDS011;65956;52.986;17.490;2023-10-09T16:59:36;16.50;;;9.40;;
77026;SDS011;65956;52.986;17.490;2023-10-09T17:02:02;13.40;;;7.90;;
77026;SDS011;65956;52.986;17.490;2023-10-09T17:04:38;15.20;;;8.80;;
77026;SDS011;65956;52.986;17.490;2023-10-09T17:07:05;18.10;;;10.90;;
77026;SDS011;65956;52.986;17.490;2023-10-09T17:09:40;12.20;;;6.90;;
77026;SDS011;65956;52.986;17.490;2023-10-09T17:12:07;12.40;;;7.20;;
77026;SDS011;65956;52.986;17.490;2023-10-09T17:14:33;15.00;;;8.30;;
77026;SDS011;65956;52.986;17.490;2023-10-09T17:17:00;38.20;;;15.00;;
77026;SDS011;65956;52.986;17.490;2023-10-09T17:19:26;26.30;;;13.90;;
77026;SDS011;65956;52.986;17.490;2023-10-09T17:21:52;16.90;;;10.30;;
77026;SDS011;65956;52.986;17.490;2023-10-09T17:24:18;23.10;;;13.50;;
77026;SDS011;65956;52.986;17.490;2023-10-09T17:26:47;23.10;;;13.30;;
77026;SDS011;65956;52.986;17.490;2023-10-09T17:29:17;18.30;;;11.10;;
77026;SDS011;65956;52.986;17.490;2023-10-09T17:31:43;21.10;;;12.70;;
77026;SDS011;65956;52.986;17.490;2023-10-09T17:34:09;46.10;;;32.50;;
77026;SDS011;65956;52.986;17.490;2023-10-09T17:36:35;34.90;;;25.20;;
77026;SDS011;65956;52.986;17.490;2023-10-09T17:39:01;36.00;;;22.80;;
77026;SDS011;65956;52.986;17.490;2023-10-09T17:41:30;29.30;;;22.00;;
77026;SDS011;65956;52.986;17.490;2023-10-09T17:44:03;21.10;;;14.00;;
77026;SDS011;65956;52.986;17.490;2023-10-09T17:46:30;26.50;;;15.00;;
77026;SDS011;65956;52.986;17.490;2023-10-09T17:48:56;41.50;;;22.40;;
77026;SDS011;65956;52.986;17.490;2023-10-09T17:51:22;80.10;;;30.50;;
77026;SDS011;65956;52.986;17.490;2023-10-09T17:53:49;54.20;;;24.20;;
77026;SDS011;65956;52.986;17.490;2023-10-09T17:56:15;59.30;;;29.70;;
77026;SDS011;65956;52.986;17.490;2023-10-09T17:58:44;35.00;;;18.40;;
77026;SDS011;65956;52.986;17.490;2023-10-09T18:01:15;84.00;;;33.90;;
77026;SDS011;65956;52.986;17.490;2023-10-09T18:03:43;102.80;;;36.40;;
77026;SDS011;65956;52.986;17.490;2023-10-09T18:06:14;51.70;;;23.10;;
77026;SDS011;65956;52.986;17.490;2023-10-09T18:08:42;37.20;;;15.30;;
77026;SDS011;65956;52.986;17.490;2023-10-09T18:11:08;44.30;;;17.60;;
77026;SDS011;65956;52.986;17.490;2023-10-09T18:13:34;39.90;;;17.00;;
77026;SDS011;65956;52.986;17.490;2023-10-09T18:16:05;59.10;;;23.20;;
77026;SDS011;65956;52.986;17.490;2023-10-09T18:18:42;44.60;;;18.20;;
77026;SDS011;65956;52.986;17.490;2023-10-09T18:21:18;40.20;;;19.20;;
77026;SDS011;65956;52.986;17.490;2023-10-09T18:23:47;102.60;;;38.80;;
77026;SDS011;65956;52.986;17.490;2023-10-09T18:26:13;47.50;;;21.20;;
77026;SDS011;65956;52.986;17.490;2023-10-09T18:28:40;63.00;;;33.70;;
77026;SDS011;65956;52.986;17.490;2023-10-09T18:31:10;40.50;;;21.10;;
77026;SDS011;65956;52.986;17.490;2023-10-09T18:33:44;33.10;;;14.60;;
77026;SDS011;65956;52.986;17.490;2023-10-09T18:36:13;26.70;;;13.60;;
77026;SDS011;65956;52.986;17.490;2023-10-09T18:38:39;31.80;;;15.20;;
77026;SDS011;65956;52.986;17.490;2023-10-09T18:41:08;31.80;;;15.80;;
77026;SDS011;65956;52.986;17.490;2023-10-09T18:43:36;47.40;;;19.40;;
77026;SDS011;65956;52.986;17.490;2023-10-09T18:46:05;35.70;;;16.40;;
77026;SDS011;65956;52.986;17.490;2023-10-09T18:48:34;24.50;;;13.50;;
77026;SDS011;65956;52.986;17.490;2023-10-09T18:51:01;21.20;;;11.50;;
77026;SDS011;65956;52.986;17.490;2023-10-09T18:53:27;46.90;;;19.00;;
77026;SDS011;65956;52.986;17.490;2023-10-09T18:55:57;35.80;;;16.60;;
77026;SDS011;65956;52.986;17.490;2023-10-09T18:58:26;26.30;;;14.20;;
77026;SDS011;65956;52.986;17.490;2023-10-09T19:00:53;22.70;;;11.90;;
77026;SDS011;65956;52.986;17.490;2023-10-09T19:03:28;27.80;;;19.90;;
77026;SDS011;65956;52.986;17.490;2023-10-09T19:05:54;38.20;;;21.90;;
77026;SDS011;65956;52.986;17.490;2023-10-09T19:08:22;24.90;;;13.70;;
77026;SDS011;65956;52.986;17.490;2023-10-09T19:10:48;26.40;;;14.10;;
77026;SDS011;65956;52.986;17.490;2023-10-09T19:13:14;27.20;;;14.60;;
77026;SDS011;65956;52.986;17.490;2023-10-09T19:15:40;24.20;;;14.20;;
77026;SDS011;65956;52.986;17.490;2023-10-09T19:18:07;24.00;;;14.30;;
77026;SDS011;65956;52.986;17.490;2023-10-09T19:20:38;100.60;;;55.50;;
77026;SDS011;65956;52.986;17.490;2023-10-09T19:23:05;42.50;;;24.10;;
77026;SDS011;65956;52.986;17.490;2023-10-09T19:25:37;43.50;;;24.80;;
77026;SDS011;65956;52.986;17.490;2023-10-09T19:28:06;60.20;;;34.30;;
77026;SDS011;65956;52.986;17.490;2023-10-09T19:30:33;59.30;;;34.80;;
77026;SDS011;65956;52.986;17.490;2023-10-09T19:33:00;34.70;;;22.30;;
77026;SDS011;65956;52.986;17.490;2023-10-09T19:35:31;30.20;;;19.30;;
77026;SDS011;65956;52.986;17.490;2023-10-09T19:38:00;31.60;;;19.60;;
77026;SDS011;65956;52.986;17.490;2023-10-09T19:40:26;39.90;;;23.90;;
77026;SDS011;65956;52.986;17.490;2023-10-09T19:42:52;32.90;;;20.10;;
77026;SDS011;65956;52.986;17.490;2023-10-09T19:45:18;35.10;;;22.80;;
77026;SDS011;65956;52.986;17.490;2023-10-09T19:47:49;23.20;;;14.50;;
77026;SDS011;65956;52.986;17.490;2023-10-09T19:50:16;66.70;;;24.50;;
77026;SDS011;65956;52.986;17.490;2023-10-09T19:52:45;60.40;;;24.00;;
77026;SDS011;65956;52.986;17.490;2023-10-09T19:55:14;31.40;;;17.50;;
77026;SDS011;65956;52.986;17.490;2023-10-09T19:57:40;27.60;;;16.00;;
77026;SDS011;65956;52.986;17.490;2023-10-09T20:00:09;29.70;;;17.90;;
77026;SDS011;65956;52.986;17.490;2023-10-09T20:02:36;26.00;;;16.10;;
77026;SDS011;65956;52.986;17.490;2023-10-09T20:05:02;26.20;;;16.70;;
77026;SDS011;65956;52.986;17.490;2023-10-09T20:07:28;20.70;;;14.00;;
77026;SDS011;65956;52.986;17.490;2023-10-09T20:09:54;20.80;;;13.80;;
77026;SDS011;65956;52.986;17.490;2023-10-09T20:12:24;23.70;;;13.80;;
77026;SDS011;65956;52.986;17.490;2023-10-09T20:14:55;21.50;;;14.30;;
77026;SDS011;65956;52.986;17.490;2023-10-09T20:17:22;26.50;;;16.90;;
77026;SDS011;65956;52.986;17.490;2023-10-09T20:19:49;24.30;;;17.10;;
77026;SDS011;65956;52.986;17.490;2023-10-09T20:22:19;23.60;;;15.80;;
77026;SDS011;65956;52.986;17.490;2023-10-09T20:24:46;27.30;;;16.80;;
77026;SDS011;65956;52.986;17.490;2023-10-09T20:27:12;24.60;;;15.20;;
77026;SDS011;65956;52.986;17.490;2023-10-09T20:29:44;40.40;;;22.60;;
77026;SDS011;65956;52.986;17.490;2023-10-09T20:32:13;27.10;;;17.80;;
77026;SDS011;65956;52.986;17.490;2023-10-09T20:34:42;27.00;;;15.90;;
77026;SDS011;65956;52.986;17.490;2023-10-09T20:37:09;20.70;;;13.10;;
77026;SDS011;65956;52.986;17.490;2023-10-09T20:39:36;28.60;;;16.40;;
77026;SDS011;65956;52.986;17.490;2023-10-09T20:42:06;23.40;;;13.20;;
77026;SDS011;65956;52.986;17.490;2023-10-09T20:44:32;22.80;;;13.40;;
77026;SDS011;65956;52.986;17.490;2023-10-09T20:47:00;24.70;;;14.20;;
77026;SDS011;65956;52.986;17.490;2023-10-09T20:49:27;24.20;;;13.30;;
77026;SDS011;65956;52.986;17.490;2023-10-09T20:51:57;24.40;;;15.50;;
77026;SDS011;65956;52.986;17.490;2023-10-09T20:54:24;25.60;;;17.50;;
77026;SDS011;65956;52.986;17.490;2023-10-09T20:56:51;25.70;;;13.90;;
77026;SDS011;65956;52.986;17.490;2023-10-09T20:59:17;22.60;;;13.60;;
77026;SDS011;65956;52.986;17.490;2023-10-09T21:01:43;18.90;;;11.30;;
77026;SDS011;65956;52.986;17.490;2023-10-09T21:04:08;21.70;;;12.70;;
77026;SDS011;65956;52.986;17.490;2023-10-09T21:06:34;148.30;;;51.40;;
77026;SDS011;65956;52.986;17.490;2023-10-09T21:09:01;111.40;;;58.50;;
77026;SDS011;65956;52.986;17.490;2023-10-09T21:11:27;48.80;;;30.70;;
77026;SDS011;65956;52.986;17.490;2023-10-09T21:13:53;29.20;;;17.80;;
77026;SDS011;65956;52.986;17.490;2023-10-09T21:16:19;28.60;;;16.70;;
77026;SDS011;65956;52.986;17.490;2023-10-09T21:18:45;40.70;;;20.20;;
77026;SDS011;65956;52.986;17.490;2023-10-09T21:21:13;69.10;;;29.30;;
77026;SDS011;65956;52.986;17.490;2023-10-09T21:23:40;46.30;;;22.30;;
77026;SDS011;65956;52.986;17.490;2023-10-09T21:26:14;55.60;;;24.20;;
77026;SDS011;65956;52.986;17.490;2023-10-09T21:28:44;75.90;;;35.40;;
77026;SDS011;65956;52.986;17.490;2023-10-09T21:31:17;66.80;;;31.40;;
77026;SDS011;65956;52.986;17.490;2023-10-09T21:33:44;35.10;;;20.40;;
77026;SDS011;65956;52.986;17.490;2023-10-09T21:36:14;40.10;;;19.70;;
77026;SDS011;65956;52.986;17.490;2023-10-09T21:38:41;34.40;;;19.30;;
77026;SDS011;65956;52.986;17.490;2023-10-09T21:41:11;32.90;;;17.70;;
77026;SDS011;65956;52.986;17.490;2023-10-09T21:43:38;51.80;;;25.10;;
77026;SDS011;65956;52.986;17.490;2023-10-09T21:46:08;23.30;;;13.60;;
77026;SDS011;65956;52.986;17.490;2023-10-09T21:48:35;25.60;;;14.10;;
77026;SDS011;65956;52.986;17.490;2023-10-09T21:51:05;29.60;;;17.20;;
77026;SDS011;65956;52.986;17.490;2023-10-09T21:53:33;36.00;;;19.70;;
77026;SDS011;65956;52.986;17.490;2023-10-09T21:56:03;31.70;;;19.40;;
77026;SDS011;65956;52.986;17.490;2023-10-09T21:58:29;36.10;;;20.70;;
77026;SDS011;65956;52.986;17.490;2023-10-09T22:00:55;43.80;;;21.30;;
77026;SDS011;65956;52.986;17.490;2023-10-09T22:03:22;33.60;;;18.70;;
77026;SDS011;65956;52.986;17.490;2023-10-09T22:05:53;40.80;;;22.20;;
77026;SDS011;65956;52.986;17.490;2023-10-09T22:08:22;29.80;;;16.80;;
77026;SDS011;65956;52.986;17.490;2023-10-09T22:10:48;29.00;;;18.20;;
77026;SDS011;65956;52.986;17.490;2023-10-09T22:13:15;36.80;;;20.80;;
77026;SDS011;65956;52.986;17.490;2023-10-09T22:15:41;29.10;;;17.40;;
77026;SDS011;65956;52.986;17.490;2023-10-09T22:18:09;25.80;;;14.60;;
77026;SDS011;65956;52.986;17.490;2023-10-09T22:20:37;29.70;;;16.50;;
77026;SDS011;65956;52.986;17.490;2023-10-09T22:23:04;28.30;;;16.30;;
77026;SDS011;65956;52.986;17.490;2023-10-09T22:25:36;29.40;;;16.70;;
77026;SDS011;65956;52.986;17.490;2023-10-09T22:28:02;31.80;;;17.70;;
77026;SDS011;65956;52.986;17.490;2023-10-09T22:30:35;23.90;;;14.70;;
77026;SDS011;65956;52.986;17.490;2023-10-09T22:33:02;28.40;;;16.60;;
77026;SDS011;65956;52.986;17.490;2023-10-09T22:35:30;32.30;;;18.80;;
77026;SDS011;65956;52.986;17.490;2023-10-09T22:38:00;39.80;;;22.20;;
77026;SDS011;65956;52.986;17.490;2023-10-09T22:40:34;28.30;;;17.40;;
77026;SDS011;65956;52.986;17.490;2023-10-09T22:43:07;24.70;;;16.20;;
77026;SDS011;65956;52.986;17.490;2023-10-09T22:45:34;29.30;;;17.40;;
77026;SDS011;65956;52.986;17.490;2023-10-09T22:48:05;27.90;;;16.70;;
77026;SDS011;65956;52.986;17.490;2023-10-09T22:50:31;31.40;;;17.60;;
77026;SDS011;65956;52.986;17.490;2023-10-09T22:53:03;33.30;;;18.50;;
77026;SDS011;65956;52.986;17.490;2023-10-09T22:55:58;21.20;;;12.70;;
77026;SDS011;65956;52.986;17.490;2023-10-09T22:58:28;25.40;;;15.60;;
77026;SDS011;65956;52.986;17.490;2023-10-09T23:01:05;27.40;;;16.10;;
77026;SDS011;65956;52.986;17.490;2023-10-09T23:03:44;26.60;;;15.40;;
77026;SDS011;65956;52.986;17.490;2023-10-09T23:06:30;27.10;;;15.50;;
77026;SDS011;65956;52.986;17.490;2023-10-09T23:09:13;27.90;;;17.10;;
77026;SDS011;65956;52.986;17.490;2023-10-09T23:11:56;26.80;;;16.70;;
77026;SDS011;65956;52.986;17.490;2023-10-09T23:14:25;28.40;;;16.20;;
77026;SDS011;65956;52.986;17.490;2023-10-09T23:16:54;24.80;;;14.90;;
77026;SDS011;65956;52.986;17.490;2023-10-09T23:19:27;24.40;;;14.30;;
77026;SDS011;65956;52.986;17.490;2023-10-09T23:22:10;24.90;;;15.90;;
77026;SDS011;65956;52.986;17.490;2023-10-09T23:24:38;27.90;;;16.50;;
77026;SDS011;65956;52.986;17.490;2023-10-09T23:30:07;27.20;;;16.80;;
77026;SDS011;65956;52.986;17.490;2023-10-09T23:32:41;27.60;;;17.60;;
77026;SDS011;65956;52.986;17.490;2023-10-09T23:35:16;24.90;;;15.70;;
77026;SDS011;65956;52.986;17.490;2023-10-09T23:37:47;28.60;;;17.60;;
77026;SDS011;65956;52.986;17.490;2023-10-09T23:40:33;32.40;;;19.80;;
77026;SDS011;65956;52.986;17.490;2023-10-09T23:43:10;28.60;;;16.50;;
77026;SDS011;65956;52.986;17.490;2023-10-09T23:45:56;29.20;;;16.60;;
77026;SDS011;65956;52.986;17.490;2023-10-09T23:48:24;28.30;;;16.10;;
77026;SDS011;65956;52.986;17.490;2023-10-09T23:50:52;34.20;;;17.70;;
77026;SDS011;65956;52.986;17.490;2023-10-09T23:53:29;42.80;;;22.90;;
77026;SDS011;65956;52.986;17.490;2023-10-09T23:56:02;41.60;;;22.40;;
77026;SDS011;65956;52.986;17.490;2023-10-09T23:58:39;38.50;;;22.20;;
